Victoria, Mississippi
Current Conditions -  °F | °C
As of 12:50 PM on Thursday 30 Oct 2014 (Local Time) from KOLV Reporting Station
Clear Clear  
Wind Chill: 63°   Ceiling: Unl
Heat Index: 63°   Visibility: 10mi
Dew Point: 37°   Wind: 0mph
Humidity: 39%   Direction: NA
Pressure: 30.13"   Gusts: NA
Location:  34.85°N, 89.62°W
Report Text: KOLV 301750Z 00000KT 10SM SKC 17/03 A3013
Loading
Personal Weather Stations






























Interactive Weather Map
Tropical Storm Tracking
New forecast layout! Learn more

10-Day Weather Forecast

Advertisements
Track Severe Weather on mobile